createdAt,value
2022-07-29T00:02:06.176Z,60.80
2022-07-29T00:04:54.652Z,60.70
2022-07-29T00:07:43.237Z,61.13
2022-07-29T00:10:31.577Z,61.14
2022-07-29T00:13:32.456Z,60.72
2022-07-29T00:16:22.657Z,60.48
2022-07-29T00:19:11.060Z,60.47
2022-07-29T00:22:00.902Z,60.80
2022-07-29T00:24:49.597Z,60.61
2022-07-29T00:27:38.497Z,60.50
2022-07-29T00:30:26.876Z,60.57
2022-07-29T00:33:16.588Z,60.66
2022-07-29T00:36:04.453Z,60.45
2022-07-29T00:38:53.409Z,60.45
2022-07-29T00:41:41.728Z,60.62
2022-07-29T00:44:30.024Z,60.91
2022-07-29T00:47:18.324Z,60.90
2022-07-29T00:50:09.894Z,60.76
2022-07-29T00:52:58.339Z,60.90
2022-07-29T00:55:46.825Z,61.18
2022-07-29T00:58:35.214Z,61.19
2022-07-29T01:01:23.635Z,61.20
2022-07-29T01:04:12.214Z,61.26
2022-07-29T01:07:06.214Z,61.31
2022-07-29T01:09:55.676Z,61.19
2022-07-29T01:12:46.606Z,61.56
2022-07-29T01:15:40.722Z,61.57
2022-07-29T01:18:43.748Z,61.62
2022-07-29T01:21:53.757Z,61.93
2022-07-29T01:25:12.307Z,61.90
2022-07-29T01:28:15.219Z,62.35
2022-07-29T01:31:08.493Z,62.35
2022-07-29T01:34:04.116Z,62.13
2022-07-29T01:37:02.902Z,61.96
2022-07-29T01:39:53.668Z,62.03
2022-07-29T01:42:46.217Z,62.30
2022-07-29T01:45:40.822Z,62.40
2022-07-29T01:48:38.599Z,62.43
2022-07-29T01:51:33.782Z,62.36
2022-07-29T01:54:34.369Z,62.33
2022-07-29T01:57:30.110Z,62.22
2022-07-29T02:00:19.770Z,62.54
2022-07-29T02:03:13.307Z,62.46
2022-07-29T02:06:06.348Z,61.99
2022-07-29T02:08:56.250Z,62.03
2022-07-29T02:11:50.798Z,62.32
2022-07-29T02:14:44.766Z,62.59
2022-07-29T02:17:38.820Z,62.32
2022-07-29T02:20:31.081Z,61.96
2022-07-29T02:23:22.782Z,62.17
2022-07-29T02:26:11.486Z,62.66
2022-07-29T02:29:02.269Z,62.67
2022-07-29T02:31:52.967Z,62.42
2022-07-29T02:34:43.591Z,62.68
2022-07-29T02:37:34.268Z,62.46
2022-07-29T02:40:24.176Z,62.33
2022-07-29T02:43:13.560Z,62.82
2022-07-29T02:46:05.946Z,62.65
2022-07-29T02:49:06.563Z,62.67
2022-07-29T02:52:00.169Z,62.61
2022-07-29T02:54:56.072Z,63.26
2022-07-29T02:57:54.380Z,62.93
2022-07-29T03:00:46.792Z,63.57
2022-07-29T03:03:38.689Z,63.66
2022-07-29T03:06:38.077Z,63.21
2022-07-29T03:09:29.158Z,63.32
2022-07-29T03:12:18.569Z,63.01
2022-07-29T03:15:09.738Z,63.04
2022-07-29T03:17:58.752Z,63.30
2022-07-29T03:20:47.328Z,63.30
2022-07-29T03:23:36.851Z,63.29
2022-07-29T03:26:25.584Z,63.14
2022-07-29T03:29:14.066Z,63.22
2022-07-29T03:32:08.242Z,63.13
2022-07-29T03:34:57.336Z,62.94
2022-07-29T03:37:45.920Z,62.91
2022-07-29T03:40:39.682Z,63.42
2022-07-29T03:43:32.805Z,63.29
2022-07-29T03:46:24.803Z,63.38
2022-07-29T03:49:17.600Z,63.22
2022-07-29T03:52:07.154Z,63.15
2022-07-29T03:54:56.189Z,63.88
2022-07-29T03:57:46.646Z,63.68
2022-07-29T04:00:36.327Z,63.27
2022-07-29T04:03:25.042Z,63.26
2022-07-29T04:06:14.920Z,63.13
2022-07-29T04:09:03.244Z,63.58
2022-07-29T04:11:59.169Z,62.62
2022-07-29T04:14:52.291Z,62.68
2022-07-29T04:17:40.762Z,63.21
2022-07-29T04:20:29.303Z,63.07
2022-07-29T04:23:19.258Z,63.16
2022-07-29T04:27:22.147Z,62.14
2022-07-29T04:30:11.292Z,61.95
2022-07-29T04:32:59.616Z,61.60
2022-07-29T04:35:52.378Z,61.63
2022-07-29T04:38:41.386Z,61.16
2022-07-29T04:41:33.311Z,61.66
2022-07-29T04:44:28.725Z,61.34
2022-07-29T04:47:17.474Z,60.43
2022-07-29T04:50:07.020Z,60.79
2022-07-29T04:52:55.363Z,60.42
2022-07-29T04:55:43.737Z,60.39
2022-07-29T04:58:32.233Z,60.89
2022-07-29T05:01:22.453Z,60.37
2022-07-29T05:04:10.988Z,60.46
2022-07-29T05:06:59.418Z,60.48
2022-07-29T05:09:47.731Z,60.41
2022-07-29T05:12:36.219Z,59.70
2022-07-29T05:15:24.768Z,60.37
2022-07-29T05:18:15.200Z,60.58
2022-07-29T05:21:03.928Z,60.47
2022-07-29T05:23:52.265Z,59.83
2022-07-29T05:26:41.139Z,60.28
2022-07-29T05:29:43.754Z,60.01
2022-07-29T05:32:33.521Z,60.49
2022-07-29T05:35:23.665Z,59.49
2022-07-29T05:38:12.197Z,59.70
2022-07-29T05:41:00.938Z,59.47
2022-07-29T05:43:49.571Z,59.24
2022-07-29T05:46:38.098Z,59.76
2022-07-29T05:49:27.264Z,59.75
2022-07-29T05:52:17.333Z,59.72
2022-07-29T05:55:06.712Z,59.45
2022-07-29T05:57:55.148Z,59.43
2022-07-29T06:00:43.590Z,59.55
2022-07-29T06:03:32.291Z,59.45
2022-07-29T06:06:20.637Z,59.92
2022-07-29T06:09:12.147Z,59.61
2022-07-29T06:12:01.339Z,58.84
2022-07-29T06:14:53.903Z,58.84
2022-07-29T06:17:59.340Z,59.10
2022-07-29T06:20:49.298Z,58.64
2022-07-29T06:23:38.985Z,58.83
2022-07-29T06:26:30.339Z,58.18
2022-07-29T06:29:19.829Z,58.52
2022-07-29T06:32:10.196Z,58.50
2022-07-29T06:35:17.736Z,58.75
2022-07-29T06:38:19.674Z,58.46
2022-07-29T06:41:17.124Z,58.50
2022-07-29T06:44:07.082Z,58.43
2022-07-29T06:46:55.882Z,58.13
2022-07-29T06:49:44.505Z,57.84
2022-07-29T06:52:32.909Z,57.41
2022-07-29T06:55:24.789Z,57.14
2022-07-29T06:58:15.290Z,57.47
2022-07-29T07:01:07.569Z,56.44
2022-07-29T07:03:56.005Z,56.81
2022-07-29T07:06:45.062Z,56.71
2022-07-29T07:09:40.542Z,56.57
2022-07-29T07:12:29.352Z,56.91
2022-07-29T07:15:17.769Z,56.23
2022-07-29T07:18:08.648Z,55.00
2022-07-29T07:20:57.914Z,55.47
2022-07-29T07:23:46.351Z,55.43
2022-07-29T07:26:34.775Z,55.90
2022-07-29T07:29:23.104Z,56.11
2022-07-29T07:32:11.591Z,54.98
2022-07-29T07:35:01.539Z,55.38
2022-07-29T07:37:50.121Z,56.18
2022-07-29T07:40:38.601Z,55.00
2022-07-29T07:43:27.081Z,55.16
2022-07-29T07:46:15.778Z,56.11
2022-07-29T07:49:04.371Z,55.63
2022-07-29T07:51:54.259Z,55.66
2022-07-29T07:54:42.690Z,55.72
2022-07-29T07:57:31.157Z,54.76
2022-07-29T08:00:19.685Z,54.89
2022-07-29T08:03:17.214Z,54.57
2022-07-29T08:06:06.729Z,54.88
2022-07-29T08:08:56.530Z,53.88
2022-07-29T08:11:51.575Z,53.86
2022-07-29T08:14:40.545Z,53.82
2022-07-29T08:17:29.422Z,53.66
2022-07-29T08:20:17.869Z,54.08
2022-07-29T08:23:07.271Z,53.18
2022-07-29T08:25:56.993Z,53.22
2022-07-29T08:28:46.997Z,52.73
2022-07-29T08:31:35.656Z,52.27
2022-07-29T08:34:26.882Z,51.51
2022-07-29T08:37:16.537Z,52.14
2022-07-29T08:40:07.296Z,52.04
2022-07-29T08:42:57.201Z,51.69
2022-07-29T08:45:48.482Z,50.74
2022-07-29T08:48:38.385Z,51.31
2022-07-29T08:51:29.065Z,51.87
2022-07-29T08:54:19.786Z,50.72
2022-07-29T08:57:08.550Z,50.66
2022-07-29T09:00:06.219Z,50.38
2022-07-29T09:03:00.296Z,50.92
2022-07-29T09:05:49.824Z,51.23
2022-07-29T09:08:38.370Z,51.64
2022-07-29T09:11:27.115Z,51.27
2022-07-29T09:14:15.684Z,51.04
2022-07-29T09:17:05.749Z,50.57
2022-07-29T09:20:10.151Z,50.30
2022-07-29T09:22:58.524Z,50.44
2022-07-29T09:25:47.433Z,49.72
2022-07-29T09:28:36.044Z,49.54
2022-07-29T09:31:35.343Z,50.20
2022-07-29T09:34:26.528Z,49.10
2022-07-29T09:37:28.416Z,49.29
2022-07-29T09:40:18.964Z,49.63
2022-07-29T09:43:12.845Z,48.94
2022-07-29T09:46:12.594Z,49.11
2022-07-29T09:49:11.362Z,49.18
2022-07-29T09:52:06.608Z,49.22
2022-07-29T09:54:56.257Z,49.16
2022-07-29T09:57:45.457Z,48.85
2022-07-29T10:00:44.366Z,48.46
2022-07-29T10:03:33.043Z,48.06
2022-07-29T10:06:21.682Z,48.79
2022-07-29T10:09:12.211Z,47.18
2022-07-29T10:12:09.106Z,47.75
2022-07-29T10:14:57.572Z,48.57
2022-07-29T10:17:47.214Z,48.43
2022-07-29T10:20:36.414Z,48.19
2022-07-29T10:23:26.008Z,48.34
2022-07-29T10:26:16.635Z,47.71
2022-07-29T10:29:05.124Z,47.63
2022-07-29T10:32:10.156Z,47.66
2022-07-29T10:35:29.774Z,47.69
2022-07-29T10:38:46.002Z,47.69
2022-07-29T10:42:01.517Z,47.31
2022-07-29T10:44:52.589Z,47.57
2022-07-29T10:47:41.838Z,47.24
2022-07-29T10:50:55.376Z,46.54
2022-07-29T10:53:51.412Z,47.83
2022-07-29T10:56:41.383Z,47.33
2022-07-29T10:59:36.533Z,46.88
2022-07-29T11:02:50.121Z,47.24
2022-07-29T11:05:59.854Z,47.90
2022-07-29T11:09:18.225Z,47.57
2022-07-29T11:12:49.910Z,47.20
2022-07-29T11:15:57.219Z,46.96
2022-07-29T11:19:29.917Z,47.62
2022-07-29T11:22:34.980Z,47.41
2022-07-29T11:25:50.851Z,47.77
2022-07-29T11:28:32.509Z,46.92
2022-07-29T11:31:35.660Z,46.71
2022-07-29T11:37:42.493Z,46.80
2022-07-29T11:40:34.460Z,46.97
2022-07-29T11:43:48.269Z,46.05
2022-07-29T11:46:50.073Z,45.91
2022-07-29T11:49:48.165Z,45.49
2022-07-29T11:52:50.055Z,44.80
2022-07-29T11:55:50.898Z,44.98
2022-07-29T11:58:40.756Z,44.68
2022-07-29T12:01:29.096Z,44.23
2022-07-29T12:04:18.864Z,43.35
2022-07-29T12:07:08.445Z,41.70
2022-07-29T12:09:57.140Z,40.88
2022-07-29T12:12:53.765Z,40.85
2022-07-29T12:15:47.140Z,41.07
2022-07-29T12:18:35.789Z,39.89
2022-07-29T12:21:26.571Z,39.97
2022-07-29T12:24:17.813Z,39.82
2022-07-29T12:27:11.081Z,38.33
2022-07-29T12:30:01.924Z,37.97
2022-07-29T12:32:50.752Z,38.41
2022-07-29T12:35:39.486Z,37.59
2022-07-29T12:38:30.593Z,37.12
2022-07-29T12:41:19.033Z,36.53
2022-07-29T12:44:07.479Z,36.94
2022-07-29T12:47:04.444Z,36.25
2022-07-29T12:50:09.022Z,35.67
2022-07-29T12:53:10.396Z,35.92
2022-07-29T12:56:08.040Z,35.77
2022-07-29T12:59:14.594Z,35.18
2022-07-29T13:02:03.051Z,35.67
2022-07-29T13:04:58.898Z,35.52
2022-07-29T13:07:54.951Z,36.57
2022-07-29T13:10:46.099Z,36.58
2022-07-29T13:13:35.867Z,37.51
2022-07-29T13:16:24.262Z,38.62
2022-07-29T13:19:14.513Z,39.11
2022-07-29T13:22:03.098Z,39.17
2022-07-29T13:24:53.093Z,39.81
2022-07-29T13:27:41.824Z,40.29
2022-07-29T13:30:31.595Z,41.66
2022-07-29T13:33:20.071Z,41.34
2022-07-29T13:36:08.826Z,40.87
2022-07-29T13:38:57.278Z,41.44
2022-07-29T13:41:45.844Z,42.09
2022-07-29T13:44:34.404Z,40.50
2022-07-29T13:47:32.267Z,39.83
2022-07-29T13:50:21.632Z,39.43
2022-07-29T13:53:10.077Z,38.98
2022-07-29T13:56:07.926Z,38.91
2022-07-29T13:58:56.409Z,38.28
2022-07-29T14:01:45.503Z,39.00
2022-07-29T14:04:36.627Z,39.06
2022-07-29T14:07:28.161Z,37.56
2022-07-29T14:10:20.044Z,38.24
2022-07-29T14:13:24.719Z,39.01
2022-07-29T14:16:14.305Z,38.20
2022-07-29T14:19:02.810Z,38.40
2022-07-29T14:21:52.646Z,38.29
2022-07-29T14:24:41.511Z,38.37
2022-07-29T14:27:37.547Z,37.93
2022-07-29T14:30:26.984Z,38.46
2022-07-29T14:33:15.739Z,38.93
2022-07-29T14:36:04.458Z,39.80
2022-07-29T14:38:54.278Z,40.35
2022-07-29T14:41:42.829Z,40.27
2022-07-29T14:44:32.326Z,40.04
2022-07-29T14:47:20.891Z,39.57
2022-07-29T14:50:10.525Z,39.71
2022-07-29T14:52:59.023Z,40.51
2022-07-29T14:55:48.783Z,40.77
2022-07-29T14:58:37.498Z,41.34
2022-07-29T15:01:37.780Z,39.92
2022-07-29T15:04:26.403Z,40.45
2022-07-29T15:07:14.754Z,39.87
2022-07-29T15:10:03.517Z,39.95
2022-07-29T15:12:53.297Z,40.56
2022-07-29T15:15:42.378Z,40.44
2022-07-29T15:18:31.156Z,41.85
2022-07-29T15:21:20.558Z,41.17
2022-07-29T15:24:09.220Z,41.71
2022-07-29T15:26:57.780Z,41.78
2022-07-29T15:29:47.685Z,41.66
2022-07-29T15:32:36.080Z,41.49
2022-07-29T15:35:24.381Z,41.68
2022-07-29T15:38:12.824Z,42.27
2022-07-29T15:41:01.293Z,43.02
2022-07-29T15:43:50.410Z,43.33
2022-07-29T15:46:57.963Z,43.96
2022-07-29T15:49:49.360Z,43.81
2022-07-29T15:52:37.948Z,43.58
2022-07-29T15:55:29.587Z,44.08
2022-07-29T15:58:18.326Z,44.22
2022-07-29T16:01:06.842Z,44.12
2022-07-29T16:03:56.775Z,44.98
2022-07-29T16:06:46.027Z,44.57
2022-07-29T16:09:34.608Z,44.81
2022-07-29T16:12:22.939Z,45.03
2022-07-29T16:15:11.793Z,45.20
2022-07-29T16:18:00.979Z,46.01
2022-07-29T16:20:50.794Z,46.20
2022-07-29T16:23:39.325Z,46.47
2022-07-29T16:26:27.868Z,46.93
2022-07-29T16:29:18.248Z,48.14
2022-07-29T16:32:07.451Z,49.86
2022-07-29T16:34:55.876Z,50.43
2022-07-29T16:37:45.616Z,51.58
2022-07-29T16:40:34.089Z,52.48
2022-07-29T16:43:22.436Z,53.55
2022-07-29T16:46:14.027Z,62.70
2022-07-29T16:49:07.153Z,71.06
2022-07-29T16:51:55.591Z,73.34
2022-07-29T16:54:45.548Z,75.46
2022-07-29T16:57:34.014Z,77.19
2022-07-29T17:00:23.779Z,77.69
2022-07-29T17:03:13.532Z,80.42
2022-07-29T17:06:02.190Z,79.84
2022-07-29T17:08:50.641Z,81.17
2022-07-29T17:11:53.924Z,80.29
2022-07-29T17:14:43.187Z,82.19
2022-07-29T17:17:39.430Z,82.34
2022-07-29T17:20:42.116Z,82.11
2022-07-29T17:23:30.579Z,83.11
2022-07-29T17:26:19.362Z,82.76
2022-07-29T17:29:09.144Z,81.94
2022-07-29T17:32:00.223Z,82.08
2022-07-29T17:34:48.612Z,82.68
2022-07-29T17:37:37.118Z,82.65
2022-07-29T17:40:25.571Z,81.78
2022-07-29T17:43:13.922Z,81.46
2022-07-29T17:46:03.955Z,81.81
2022-07-29T17:48:52.469Z,82.65
2022-07-29T17:51:41.598Z,82.84
2022-07-29T17:54:30.045Z,82.53
2022-07-29T17:57:18.541Z,83.49
2022-07-29T18:00:08.530Z,83.05
2022-07-29T18:02:58.657Z,82.99
2022-07-29T18:05:47.174Z,82.86
2022-07-29T18:08:36.227Z,82.69
2022-07-29T18:11:24.892Z,82.42
2022-07-29T18:14:13.610Z,83.62
2022-07-29T18:17:02.285Z,83.15
2022-07-29T18:19:52.872Z,82.15
2022-07-29T18:22:41.333Z,82.28
2022-07-29T18:25:30.147Z,81.80
2022-07-29T18:28:18.744Z,82.29
2022-07-29T18:31:07.167Z,82.33
2022-07-29T18:33:59.856Z,82.85
2022-07-29T18:36:50.071Z,83.21
2022-07-29T18:39:38.492Z,83.66
2022-07-29T18:42:26.870Z,84.21
2022-07-29T18:45:19.528Z,84.96
2022-07-29T18:48:12.640Z,85.80
2022-07-29T18:51:01.731Z,86.35
2022-07-29T18:53:51.865Z,86.04
2022-07-29T18:56:40.348Z,84.19
2022-07-29T18:59:30.540Z,84.36
2022-07-29T19:02:18.976Z,83.98
2022-07-29T19:05:09.125Z,84.44
2022-07-29T19:07:57.524Z,84.08
2022-07-29T19:10:47.221Z,84.06
2022-07-29T19:13:37.163Z,84.95
2022-07-29T19:16:25.657Z,84.97
2022-07-29T19:19:14.667Z,84.82
2022-07-29T19:22:03.265Z,84.56
2022-07-29T19:24:51.724Z,84.42
2022-07-29T19:27:41.520Z,83.95
2022-07-29T19:30:29.916Z,83.54
2022-07-29T19:33:19.104Z,83.60
2022-07-29T19:36:08.111Z,85.99
2022-07-29T19:38:56.445Z,87.03
2022-07-29T19:41:45.113Z,85.40
2022-07-29T19:44:34.878Z,88.00
2022-07-29T19:47:23.399Z,88.55
2022-07-29T19:50:12.218Z,87.57
2022-07-29T19:53:01.530Z,89.42
2022-07-29T19:55:50.184Z,86.86
2022-07-29T19:58:40.637Z,86.24
2022-07-29T20:01:32.224Z,85.18
2022-07-29T20:04:20.898Z,84.73
2022-07-29T20:07:09.561Z,85.57
2022-07-29T20:09:57.972Z,84.72
2022-07-29T20:12:46.435Z,84.79
2022-07-29T20:15:37.689Z,83.92
2022-07-29T20:18:27.941Z,83.73
2022-07-29T20:21:16.317Z,83.15
2022-07-29T20:24:05.166Z,83.11
2022-07-29T20:26:53.603Z,84.27
2022-07-29T20:29:42.256Z,84.71
2022-07-29T20:32:30.614Z,84.15
2022-07-29T20:35:22.482Z,85.40
2022-07-29T20:38:13.870Z,84.14
2022-07-29T20:41:05.049Z,83.68
2022-07-29T20:43:53.878Z,83.02
2022-07-29T20:46:42.617Z,82.62
2022-07-29T20:49:31.073Z,83.15
2022-07-29T20:52:21.896Z,83.44
2022-07-29T20:55:11.081Z,83.20
2022-07-29T20:57:59.462Z,82.97
2022-07-29T21:00:47.902Z,82.45
2022-07-29T21:03:36.868Z,83.31
2022-07-29T21:06:25.385Z,83.17
2022-07-29T21:09:15.084Z,83.50
2022-07-29T21:12:03.472Z,83.96
2022-07-29T21:14:52.310Z,84.29
2022-07-29T21:17:46.538Z,84.28
2022-07-29T21:20:34.834Z,83.98
2022-07-29T21:23:23.249Z,84.63
2022-07-29T21:26:13.379Z,84.95
2022-07-29T21:29:00.685Z,84.36
2022-07-29T21:31:49.100Z,84.59
2022-07-29T21:34:37.457Z,84.48
2022-07-29T21:37:26.201Z,84.22
2022-07-29T21:40:14.586Z,83.48
2022-07-29T21:43:04.423Z,83.59
2022-07-29T21:45:53.074Z,83.45
2022-07-29T21:48:44.574Z,83.31
2022-07-29T21:51:33.171Z,83.58
2022-07-29T21:54:21.564Z,83.38
2022-07-29T21:57:10.583Z,83.57
2022-07-29T22:00:03.022Z,83.72
2022-07-29T22:03:02.128Z,83.59
2022-07-29T22:05:50.545Z,83.98
2022-07-29T22:08:45.557Z,84.44
2022-07-29T22:11:33.981Z,84.80
2022-07-29T22:14:23.027Z,84.74
2022-07-29T22:17:13.113Z,85.36
2022-07-29T22:20:02.050Z,84.99
2022-07-29T22:22:50.416Z,84.65
2022-07-29T22:25:38.902Z,84.36
2022-07-29T22:28:27.360Z,85.19
2022-07-29T22:31:15.822Z,84.94
2022-07-29T22:34:11.741Z,85.42
2022-07-29T22:37:00.544Z,85.09
2022-07-29T22:39:49.187Z,85.68
2022-07-29T22:42:40.853Z,85.73
2022-07-29T22:45:29.557Z,85.59
2022-07-29T22:48:18.120Z,85.89
2022-07-29T22:51:08.734Z,85.71
2022-07-29T22:53:58.637Z,85.74
2022-07-29T22:56:47.117Z,86.52
2022-07-29T22:59:35.448Z,86.03
2022-07-29T23:02:23.892Z,85.74
2022-07-29T23:05:12.442Z,85.79
2022-07-29T23:08:02.642Z,85.95
2022-07-29T23:10:50.964Z,85.96
2022-07-29T23:13:39.402Z,85.14
2022-07-29T23:16:27.932Z,85.08
2022-07-29T23:19:16.455Z,84.86
2022-07-29T23:22:04.832Z,84.52
2022-07-29T23:24:54.623Z,84.51
2022-07-29T23:27:43.129Z,84.66
2022-07-29T23:30:31.606Z,85.09
2022-07-29T23:33:20.168Z,85.09
2022-07-29T23:36:08.833Z,84.84
2022-07-29T23:38:57.942Z,85.29
2022-07-29T23:41:47.813Z,85.01
2022-07-29T23:44:36.167Z,84.38
2022-07-29T23:47:24.565Z,84.03
2022-07-29T23:50:13.702Z,84.48
2022-07-29T23:53:02.030Z,84.73
2022-07-29T23:55:50.405Z,84.58
2022-07-29T23:58:40.156Z,84.63
